Time;durP1;ratioP1;P1;durP2;ratioP2;P2;SDS_P1;SDS_P2;PMS_P1;PMS_P2;Temp;Humidity;BMP_temperature;BMP_pressure;BME280_temperature;BME280_humidity;BME280_pressure;Samples;Min_cycle;Max_cycle;Signal;HPM_P1;HPM_P2
2022/04/18 00:00:33;;;;;;;;;4.00;4.00;;;;;14.13;42.10;101200.41;5068306;28;45770;-82
2022/04/18 00:03:03;;;;;;;;;4.00;3.50;;;;;14.09;41.89;101210.00;5069928;28;45549;-82
2022/04/18 00:05:29;;;;;;;;;3.00;3.00;;;;;14.07;42.40;101210.81;5068128;28;45515;-82
2022/04/18 00:07:55;;;;;;;;;3.00;3.00;;;;;13.87;42.50;101178.53;5051710;28;48402;-82
2022/04/18 00:10:20;;;;;;;;;3.50;3.50;;;;;13.91;42.27;101183.06;5069242;28;45415;-82
2022/04/18 00:12:45;;;;;;;;;4.00;4.00;;;;;14.17;42.88;101229.59;5068415;28;46082;-82
2022/04/18 00:15:11;;;;;;;;;3.75;3.75;;;;;14.07;42.20;101216.09;5069780;28;45304;-83
2022/04/18 00:17:36;;;;;;;;;3.50;3.00;;;;;13.76;43.17;101158.84;5069408;28;46752;-82
2022/04/18 00:20:02;;;;;;;;;3.00;3.00;;;;;14.13;42.47;101227.72;5050813;28;45675;-82
2022/04/18 00:22:27;;;;;;;;;2.25;2.25;;;;;13.83;42.80;101177.53;5051377;28;45696;-83
2022/04/18 00:24:53;;;;;;;;;3.00;3.00;;;;;14.11;42.95;101215.31;5069607;28;45595;-82
2022/04/18 00:27:18;;;;;;;;;4.00;4.00;;;;;13.68;43.41;101141.03;5067540;28;47114;-81
2022/04/18 00:29:44;;;;;;;;;3.50;3.50;;;;;13.89;43.81;101174.19;5051454;28;45654;-82
2022/04/18 00:32:09;;;;;;;;;2.50;2.50;;;;;13.83;43.89;101169.63;5069395;28;45947;-82
2022/04/18 00:34:34;;;;;;;;;4.00;3.25;;;;;13.48;43.64;101107.00;5066521;28;45394;-83
2022/04/18 00:37:00;;;;;;;;;4.00;4.00;;;;;13.78;43.84;101173.88;5049029;28;46806;-83
2022/04/18 00:39:25;;;;;;;;;3.75;3.75;;;;;13.81;43.12;101178.38;5048554;28;45482;-83
2022/04/18 00:41:50;;;;;;;;;3.00;3.00;;;;;13.88;43.87;101181.22;5034137;28;45688;-82
2022/04/18 00:44:16;;;;;;;;;2.00;2.00;;;;;13.67;44.13;101146.28;5051764;28;45606;-83
2022/04/18 00:46:41;;;;;;;;;3.25;3.25;;;;;13.86;44.19;101180.28;5050980;28;47445;-83
2022/04/18 00:49:06;;;;;;;;;3.50;3.50;;;;;13.66;44.00;101148.03;5059786;28;45798;-82
2022/04/18 00:51:32;;;;;;;;;3.50;3.50;;;;;13.70;44.27;101158.69;5054196;28;45484;-83
2022/04/18 00:53:58;;;;;;;;;4.00;4.00;;;;;13.79;44.56;101173.06;5072279;28;45443;-83
2022/04/18 00:56:24;;;;;;;;;3.00;3.00;;;;;13.63;44.58;101158.50;5071650;28;45532;-83
2022/04/18 00:58:50;;;;;;;;;3.00;3.00;;;;;13.64;45.01;101160.31;5072883;28;46020;-82
2022/04/18 01:01:16;;;;;;;;;3.00;3.00;;;;;13.78;44.52;101195.00;5072124;28;45432;-82
2022/04/18 01:03:44;;;;;;;;;3.00;3.00;;;;;13.52;45.01;101156.41;5072600;28;45702;-83
2022/04/18 01:06:10;;;;;;;;;3.50;3.00;;;;;13.62;45.37;101184.88;5053613;28;48094;-82
2022/04/18 01:08:36;;;;;;;;;3.00;3.00;;;;;13.48;44.88;101165.97;5053658;28;45852;-82
2022/04/18 01:11:05;;;;;;;;;3.25;3.25;;;;;13.59;45.56;101196.22;5071440;28;45509;-82
2022/04/18 01:13:30;;;;;;;;;4.00;4.00;;;;;13.21;45.91;101130.81;5072281;28;45623;-83
2022/04/18 01:15:57;;;;;;;;;4.75;4.50;;;;;13.53;44.27;101185.47;5072425;28;46324;-83
2022/04/18 01:18:22;;;;;;;;;3.00;3.00;;;;;13.28;44.89;101152.19;5053196;28;45963;-82
2022/04/18 01:20:49;;;;;;;;;5.00;4.00;;;;;13.47;45.46;101174.75;5072860;28;45545;-82
2022/04/18 01:23:16;;;;;;;;;3.25;3.00;;;;;13.51;45.37;101191.59;5053066;28;45709;-82
2022/04/18 01:31:09;;;;;;;;;4.00;4.00;;;;;13.19;46.23;101170.34;5071672;28;45595;-82
2022/04/18 01:33:34;;;;;;;;;3.00;3.00;;;;;12.77;46.64;101099.56;5053164;28;45832;-82
2022/04/18 01:36:00;;;;;;;;;3.75;3.00;;;;;12.93;46.51;101129.97;5072176;28;46372;-82
2022/04/18 01:38:25;;;;;;;;;3.75;3.50;;;;;13.09;46.49;101163.00;5069834;28;45500;-83
2022/04/18 01:40:51;;;;;;;;;4.50;4.00;;;;;12.70;47.27;101108.13;5071839;28;45659;-83
2022/04/18 01:43:16;;;;;;;;;3.50;3.50;;;;;12.62;47.03;101109.66;5071466;28;45598;-82
2022/04/18 01:45:41;;;;;;;;;4.00;3.50;;;;;12.81;47.33;101154.22;5072080;28;45590;-83
2022/04/18 01:48:07;;;;;;;;;3.50;3.50;;;;;12.62;47.73;101130.75;5071333;28;45194;-82
2022/04/18 01:50:32;;;;;;;;;3.00;3.00;;;;;12.54;47.68;101124.31;5051521;28;45761;-83
2022/04/18 01:52:58;;;;;;;;;3.00;3.00;;;;;12.71;47.44;101165.31;5049907;28;45489;-83
2022/04/18 01:55:23;;;;;;;;;3.25;3.25;;;;;12.60;47.90;101150.88;5050800;28;45514;-82
2022/04/18 01:57:49;;;;;;;;;3.25;3.00;;;;;12.72;47.95;101172.38;5051920;28;45851;-83
2022/04/18 02:00:14;;;;;;;;;4.00;3.67;;;;;12.56;47.92;101151.59;5032584;28;45708;-82
2022/04/18 02:02:40;;;;;;;;;4.75;4.00;;;;;12.58;48.21;101152.56;5051025;28;45473;-82
2022/04/18 02:05:07;;;;;;;;;5.00;4.25;;;;;12.49;47.88;101141.72;5050425;28;45482;-82
2022/04/18 02:07:33;;;;;;;;;6.00;5.00;;;;;12.58;48.51;101160.47;5032871;28;45904;-82
2022/04/18 02:09:58;;;;;;;;;3.00;3.00;;;;;12.25;48.29;101105.78;5042799;28;45516;-82
2022/04/18 02:12:23;;;;;;;;;5.00;4.00;;;;;12.33;48.86;101137.69;5071475;28;45505;-82
2022/04/18 02:14:49;;;;;;;;;4.00;4.00;;;;;12.45;49.25;101167.06;5053492;28;47284;-82
2022/04/18 02:17:14;;;;;;;;;4.25;4.00;;;;;12.27;49.22;101133.09;5070985;28;45381;-81
2022/04/18 02:19:39;;;;;;;;;4.75;4.00;;;;;12.42;49.64;101164.34;5071683;28;45547;-82
2022/04/18 02:22:05;;;;;;;;;4.33;4.00;;;;;12.40;49.04;101161.66;5071293;28;45476;-82
2022/04/18 02:24:31;;;;;;;;;4.00;4.00;;;;;12.31;49.24;101156.06;5070453;28;45509;-82
2022/04/18 02:26:57;;;;;;;;;4.00;3.75;;;;;12.09;49.64;101125.47;5071278;28;46251;-82
2022/04/18 02:29:23;;;;;;;;;5.00;5.00;;;;;12.06;49.42;101122.69;5071209;28;45628;-81
2022/04/18 02:34:32;;;;;;;;;5.00;4.00;;;;;11.96;50.29;101117.97;5071192;28;45776;-82
2022/04/18 02:36:57;;;;;;;;;3.00;3.00;;;;;11.95;49.79;101129.34;5053019;28;45979;-82
2022/04/18 02:39:22;;;;;;;;;4.00;4.00;;;;;11.78;50.14;101098.88;5070643;28;45450;-82
2022/04/18 02:41:47;;;;;;;;;4.33;4.00;;;;;11.97;49.94;101143.50;5071227;28;45772;-82
2022/04/18 02:44:13;;;;;;;;;3.00;3.00;;;;;11.65;50.24;101091.38;5070620;28;46168;-82
2022/04/18 02:46:38;;;;;;;;;3.00;3.00;;;;;11.58;50.46;101087.63;5052427;28;45739;-82
2022/04/18 02:49:03;;;;;;;;;5.00;4.00;;;;;11.43;50.46;101080.06;5071050;28;45654;-82
2022/04/18 02:51:29;;;;;;;;;3.25;3.25;;;;;11.66;50.07;101123.00;5071071;28;45567;-82
2022/04/18 02:53:54;;;;;;;;;4.00;4.00;;;;;11.63;50.78;101125.53;5070116;28;46405;-83
2022/04/18 02:56:22;;;;;;;;;4.00;4.00;;;;;11.45;50.42;101102.06;5070812;28;45294;-83
2022/04/18 02:58:48;;;;;;;;;4.00;4.00;;;;;11.58;50.39;101127.13;5071460;28;45378;-83
2022/04/18 03:01:14;;;;;;;;;3.50;3.00;;;;;11.61;50.61;101124.56;5051781;28;45634;-82
2022/04/18 03:03:39;;;;;;;;;4.00;4.00;;;;;11.30;50.99;101073.47;5071018;28;46654;-82
2022/04/18 03:06:05;;;;;;;;;4.00;4.00;;;;;11.30;51.30;101083.97;5070725;28;46218;-81
2022/04/18 03:08:31;;;;;;;;;5.75;5.75;;;;;11.37;51.55;101114.03;5070185;28;45375;-82
2022/04/18 03:11:03;;;;;;;;;4.50;4.50;;;;;11.29;51.44;101110.25;5052676;28;45565;-81
2022/04/18 03:13:29;;;;;;;;;4.00;4.00;;;;;11.18;51.71;101083.53;5069250;28;48145;-82
2022/04/18 03:15:55;;;;;;;;;5.25;5.25;;;;;11.47;51.80;101138.97;5070547;28;45517;-83
2022/04/18 03:18:21;;;;;;;;;3.50;3.00;;;;;11.14;52.00;101083.38;5070365;28;45601;-82
2022/04/18 03:20:46;;;;;;;;;4.75;4.00;;;;;11.33;52.35;101127.94;5070936;28;45609;-81
2022/04/18 03:23:11;;;;;;;;;4.67;4.00;;;;;10.95;52.49;101065.97;5051264;28;48167;-81
2022/04/18 03:25:37;;;;;;;;;4.25;4.25;;;;;10.94;52.04;101067.72;5052237;28;45490;-83
2022/04/18 03:28:03;;;;;;;;;4.00;4.00;;;;;11.05;52.08;101091.81;5052203;28;45598;-82
2022/04/18 03:30:28;;;;;;;;;5.00;5.00;;;;;11.14;52.24;101107.94;5070317;28;45363;-81
2022/04/18 03:32:53;;;;;;;;;3.75;3.75;;;;;10.95;52.74;101085.28;5070197;28;46821;-82
2022/04/18 03:35:19;;;;;;;;;4.25;4.00;;;;;11.06;52.25;101114.63;5051875;28;45675;-82
2022/04/18 03:40:28;;;;;;;;;4.25;4.00;;;;;10.65;52.83;101066.59;5070379;28;45616;-83
2022/04/18 03:42:54;;;;;;;;;5.00;5.00;;;;;10.46;52.83;101041.31;5070242;28;46237;-81
2022/04/18 03:45:19;;;;;;;;;5.50;5.50;;;;;10.55;52.97;101059.19;5069736;28;45712;-82
2022/04/18 03:47:44;;;;;;;;;4.67;4.67;;;;;10.47;53.44;101052.72;5052271;28;45456;-81
2022/04/18 03:50:10;;;;;;;;;5.00;5.00;;;;;10.61;52.87;101066.41;5069848;28;45764;-81
2022/04/18 03:52:35;;;;;;;;;4.75;4.00;;;;;10.93;53.12;101138.66;5070275;28;46230;-82
2022/04/18 03:55:00;;;;;;;;;4.25;4.25;;;;;10.87;53.35;101127.91;5051075;28;45400;-81
2022/04/18 03:57:25;;;;;;;;;5.75;5.00;;;;;10.46;53.59;101072.84;5069762;28;45515;-81
2022/04/18 03:59:51;;;;;;;;;4.00;3.33;;;;;10.55;53.71;101086.34;5051553;28;45462;-83
2022/04/18 04:02:16;;;;;;;;;5.25;4.00;;;;;10.70;53.88;101122.88;5050755;28;47098;-82
2022/04/18 04:04:42;;;;;;;;;6.00;6.00;;;;;10.46;54.29;101078.09;5051824;28;45517;-82
2022/04/18 04:07:08;;;;;;;;;3.00;3.00;;;;;10.72;54.24;101136.97;5069850;28;45587;-82
2022/04/18 04:09:34;;;;;;;;;5.00;4.75;;;;;10.53;54.20;101105.50;5069106;28;45306;-81
2022/04/18 04:11:59;;;;;;;;;4.75;4.50;;;;;10.36;54.35;101069.78;5051324;28;47992;-81
2022/04/18 04:14:25;;;;;;;;;4.75;4.00;;;;;10.65;54.08;101132.31;5067626;28;45489;-81
2022/04/18 04:16:50;;;;;;;;;5.00;5.00;;;;;10.55;54.74;101114.38;5069649;28;45724;-81
2022/04/18 04:19:15;;;;;;;;;6.00;5.50;;;;;10.21;54.22;101060.41;5069643;28;45466;-82
2022/04/18 04:21:40;;;;;;;;;5.25;5.00;;;;;10.25;54.61;101072.00;5069906;28;45614;-82
2022/04/18 04:24:06;;;;;;;;;4.00;4.00;;;;;10.27;54.74;101086.97;5068836;28;45513;-82
2022/04/18 04:26:31;;;;;;;;;6.25;5.25;;;;;10.31;54.62;101095.88;5070036;28;45493;-82
2022/04/18 04:28:56;;;;;;;;;5.25;4.75;;;;;10.22;55.03;101103.34;5069773;28;45870;-82
2022/04/18 04:31:22;;;;;;;;;6.00;6.00;;;;;10.01;55.01;101074.44;5068867;28;45521;-81
2022/04/18 04:33:47;;;;;;;;;6.75;6.50;;;;;10.33;54.88;101130.97;5068215;28;46161;-81
2022/04/18 04:36:13;;;;;;;;;4.50;4.50;;;;;9.96;55.73;101062.88;5069320;28;45642;-82
2022/04/18 04:38:38;;;;;;;;;6.00;5.00;;;;;10.19;55.47;101098.84;5069033;28;45567;-82
2022/04/18 04:41:04;;;;;;;;;5.75;5.75;;;;;9.92;55.42;101066.19;5069110;28;46095;-82
2022/04/18 04:43:29;;;;;;;;;8.25;7.00;;;;;9.97;55.63;101078.66;5069136;28;45433;-82
2022/04/18 04:45:55;;;;;;;;;6.00;5.75;;;;;10.00;55.73;101085.75;5069258;28;45636;-81
2022/04/18 04:48:22;;;;;;;;;6.25;5.25;;;;;10.21;55.98;101122.56;5048868;28;45461;-82
2022/04/18 04:50:47;;;;;;;;;5.75;5.50;;;;;10.05;55.83;101100.00;5031230;28;46822;-81
2022/04/18 04:53:13;;;;;;;;;5.00;5.00;;;;;9.91;55.71;101080.16;5048267;28;45572;-82
2022/04/18 04:55:38;;;;;;;;;5.25;5.25;;;;;9.76;56.38;101060.28;5049732;28;45387;-82
2022/04/18 04:58:04;;;;;;;;;4.00;4.00;;;;;10.09;55.77;101123.81;5049092;28;45567;-83
2022/04/18 05:00:30;;;;;;;;;5.50;5.00;;;;;9.79;56.15;101065.66;5048601;28;45632;-83
2022/04/18 05:02:56;;;;;;;;;5.50;4.75;;;;;9.78;56.21;101063.88;5049112;28;45483;-82
2022/04/18 05:05:22;;;;;;;;;5.00;4.00;;;;;9.82;56.55;101081.53;5049019;28;45454;-81
2022/04/18 05:07:47;;;;;;;;;5.00;5.00;;;;;9.83;56.33;101092.94;5048503;28;45589;-82
2022/04/18 05:10:13;;;;;;;;;4.00;4.00;;;;;9.79;56.31;101085.75;5059195;28;46307;-82
2022/04/18 05:12:39;;;;;;;;;4.75;4.00;;;;;10.07;56.71;101136.00;5067794;28;45905;-81
2022/04/18 05:15:04;;;;;;;;;3.67;3.67;;;;;9.67;56.57;101070.38;5068611;28;45448;-82
2022/04/18 05:17:30;;;;;;;;;6.75;6.75;;;;;10.01;56.85;101121.72;5069019;28;45406;-81
2022/04/18 05:19:56;;;;;;;;;5.00;5.00;;;;;9.82;56.26;101089.41;5068897;28;45976;-82
2022/04/18 05:22:21;;;;;;;;;6.00;5.00;;;;;9.82;56.87;101089.41;5068483;28;45576;-82
2022/04/18 05:24:47;;;;;;;;;4.25;4.25;;;;;9.84;56.98;101094.72;5067412;28;45370;-82
2022/04/18 05:27:15;;;;;;;;;6.00;6.00;;;;;9.85;56.86;101096.50;5070112;28;45838;-82
2022/04/18 05:29:44;;;;;;;;;4.75;4.75;;;;;9.90;56.82;101100.25;5072424;28;46347;-82
2022/04/18 05:32:10;;;;;;;;;5.00;5.00;;;;;10.09;56.76;101149.19;5072103;28;45929;-83
2022/04/18 05:34:36;;;;;;;;;5.50;5.50;;;;;10.02;57.16;101131.38;5072825;28;45374;-81
2022/04/18 05:37:01;;;;;;;;;5.50;5.00;;;;;9.72;56.98;101088.97;5072382;28;45755;-82
2022/04/18 05:39:27;;;;;;;;;4.00;4.00;;;;;9.76;56.78;101089.16;5071943;28;46491;-82
2022/04/18 05:41:52;;;;;;;;;6.75;6.75;;;;;10.10;57.33;101151.00;5072762;28;45379;-82
2022/04/18 05:44:18;;;;;;;;;5.25;5.00;;;;;9.94;56.91;101117.00;5071558;28;45602;-81
2022/04/18 05:46:43;;;;;;;;;7.25;6.25;;;;;9.98;57.05;101116.31;5072601;28;45415;-81
2022/04/18 05:49:09;;;;;;;;;5.00;5.00;;;;;9.88;56.89;101096.66;5072076;28;46558;-81
2022/04/18 05:51:36;;;;;;;;;3.00;3.00;;;;;10.02;56.98;101105.13;5053659;28;45511;-82
2022/04/18 05:54:03;;;;;;;;;5.25;5.25;;;;;10.01;57.17;101101.59;5072019;28;45371;-83
2022/04/18 05:56:28;;;;;;;;;6.00;5.50;;;;;10.28;56.90;101136.03;5072083;28;45486;-82
2022/04/18 05:58:54;;;;;;;;;5.00;5.00;;;;;10.24;56.98;101126.22;5053580;28;47192;-81
2022/04/18 06:01:20;;;;;;;;;6.00;6.00;;;;;10.18;56.89;101098.78;5071659;28;46193;-82
2022/04/18 06:03:47;;;;;;;;;7.25;6.50;;;;;10.65;56.75;101171.75;5072111;28;45485;-82
2022/04/18 06:06:14;;;;;;;;;7.25;7.25;;;;;10.43;56.03;101127.00;5071458;28;45428;-82
2022/04/18 06:08:40;;;;;;;;;7.25;6.50;;;;;10.63;55.73;101148.84;5071888;28;45926;-82
2022/04/18 06:11:05;;;;;;;;;6.75;5.00;;;;;10.47;55.51;101115.78;5071828;28;45369;-82
2022/04/18 06:13:31;;;;;;;;;8.75;8.75;;;;;10.69;55.37;101150.00;5071734;28;45565;-82
2022/04/18 06:15:56;;;;;;;;;7.00;7.00;;;;;10.56;54.97;101105.66;5053552;28;45777;-82
2022/04/18 06:18:21;;;;;;;;;7.25;7.25;;;;;10.65;55.21;101119.16;5071508;28;45413;-82
2022/04/18 06:20:47;;;;;;;;;8.25;7.25;;;;;10.70;54.50;101106.22;5071706;28;45514;-81
2022/04/18 06:23:15;;;;;;;;;8.50;7.50;;;;;11.14;55.12;101170.19;5071273;28;45604;-83
2022/04/18 06:25:40;;;;;;;;;9.50;9.00;;;;;10.69;55.53;101081.66;5053753;28;45416;-82
2022/04/18 06:28:05;;;;;;;;;11.00;10.00;;;;;11.17;54.10;101150.13;5071021;28;46155;-82
2022/04/18 06:30:31;;;;;;;;;7.50;7.25;;;;;11.19;53.68;101143.22;5070149;28;45645;-83
2022/04/18 06:32:56;;;;;;;;;6.50;6.50;;;;;11.24;53.62;101135.50;5071841;28;45612;-82
2022/04/18 06:35:22;;;;;;;;;6.00;6.00;;;;;11.33;54.47;101134.09;5071415;28;45590;-81
2022/04/18 06:37:47;;;;;;;;;8.25;8.25;;;;;11.41;54.14;101131.75;5070434;28;46055;-81
2022/04/18 06:40:12;;;;;;;;;10.00;8.33;;;;;11.60;53.60;101151.75;5070849;28;45371;-82
2022/04/18 06:42:38;;;;;;;;;12.67;12.00;;;;;11.61;53.00;101145.63;5071487;28;45606;-82
2022/04/18 06:45:04;;;;;;;;;11.00;10.75;;;;;11.82;53.27;101170.19;5070646;28;45561;-81
2022/04/18 06:47:29;;;;;;;;;9.50;8.75;;;;;11.76;53.88;101148.81;5070862;28;46397;-81
2022/04/18 06:49:54;;;;;;;;;8.67;8.67;;;;;11.80;53.75;101156.00;5056584;28;45391;-82
2022/04/18 06:52:22;;;;;;;;;12.75;11.75;;;;;11.99;53.60;101168.13;5050671;28;45719;-82
2022/04/18 06:54:47;;;;;;;;;7.50;7.50;;;;;11.87;52.22;101139.63;5051254;28;45545;-82
2022/04/18 06:57:13;;;;;;;;;8.25;7.25;;;;;12.07;51.99;101160.50;5032754;28;46993;-83
2022/04/18 06:59:38;;;;;;;;;7.50;7.25;;;;;11.95;52.54;101125.81;5032397;28;45607;-82
2022/04/18 07:02:04;;;;;;;;;5.25;5.25;;;;;12.02;51.05;101128.75;5050597;28;45693;-83
2022/04/18 07:04:29;;;;;;;;;7.00;7.00;;;;;12.29;51.00;101167.41;5050929;28;45780;-81
2022/04/18 07:06:55;;;;;;;;;6.75;6.00;;;;;12.09;50.74;101130.72;5050459;28;45495;-83
2022/04/18 07:09:20;;;;;;;;;6.00;6.00;;;;;11.99;49.44;101109.28;5053300;28;45873;-83
2022/04/18 07:11:46;;;;;;;;;7.50;7.00;;;;;12.43;49.07;101167.88;5071535;28;45634;-82
2022/04/18 07:14:13;;;;;;;;;6.00;6.00;;;;;12.31;48.93;101134.97;5068891;28;45537;-81
2022/04/18 07:16:40;;;;;;;;;7.00;6.00;;;;;12.56;48.29;101163.09;5071020;28;46630;-83
2022/04/18 07:19:05;;;;;;;;;5.25;5.25;;;;;12.63;48.16;101161.53;5069173;28;45896;-82
2022/04/18 07:21:31;;;;;;;;;5.00;5.00;;;;;12.69;48.45;101172.28;5051886;28;46001;-83
2022/04/18 07:23:56;;;;;;;;;6.00;5.75;;;;;12.50;48.23;101125.06;5070284;28;45539;-81
2022/04/18 07:26:22;;;;;;;;;7.25;7.00;;;;;12.35;47.91;101078.00;5069954;28;45437;-82
2022/04/18 07:28:47;;;;;;;;;6.25;6.00;;;;;12.69;47.30;101131.81;5052109;28;46100;-82
2022/04/18 07:31:13;;;;;;;;;7.00;6.25;;;;;12.76;47.48;101128.53;5070442;28;45662;-82
2022/04/18 07:33:39;;;;;;;;;5.75;5.25;;;;;12.99;47.05;101166.19;5070666;28;45755;-82
2022/04/18 07:36:05;;;;;;;;;7.00;7.00;;;;;12.66;47.67;101098.34;5069948;28;45777;-83
2022/04/18 07:41:19;;;;;;;;;5.75;5.00;;;;;12.91;47.27;101119.38;5070487;28;45577;-82
2022/04/18 07:43:45;;;;;;;;;6.00;5.00;;;;;12.97;47.66;101123.03;5070506;28;45584;-83
2022/04/18 07:46:11;;;;;;;;;6.25;6.25;;;;;12.95;47.88;101104.50;5069984;28;45792;-83
2022/04/18 07:48:36;;;;;;;;;7.00;7.00;;;;;13.03;46.13;101104.75;5066593;28;45372;-83
2022/04/18 07:53:46;;;;;;;;;5.00;5.00;;;;;13.54;45.43;101170.53;5050110;28;45450;-82
2022/04/18 07:56:12;;;;;;;;;6.25;6.25;;;;;13.56;45.33;101151.25;5049654;28;45799;-82
2022/04/18 07:58:37;;;;;;;;;5.50;5.25;;;;;13.46;46.63;101099.03;5049961;28;45501;-83
2022/04/18 08:01:03;;;;;;;;;6.00;5.75;;;;;13.94;45.52;101165.56;5031855;28;45929;-83
2022/04/18 08:03:28;;;;;;;;;6.00;5.25;;;;;13.75;44.97;101113.06;5050308;28;45765;-83
2022/04/18 08:05:56;;;;;;;;;5.25;5.25;;;;;14.13;44.89;101169.56;5049921;28;45763;-81
2022/04/18 08:08:21;;;;;;;;;7.75;7.50;;;;;14.18;44.03;101174.97;5031320;28;45923;-82
2022/04/18 08:10:47;;;;;;;;;7.00;7.00;;;;;13.73;43.55;101090.06;5047347;28;45555;-83
2022/04/18 08:13:12;;;;;;;;;7.25;7.25;;;;;13.96;44.00;101130.34;5069767;28;45380;-82
2022/04/18 08:15:37;;;;;;;;;7.00;6.50;;;;;14.29;45.68;101170.00;5052226;28;47164;-81
2022/04/18 08:18:03;;;;;;;;;6.00;6.00;;;;;14.00;45.27;101103.16;5070072;28;45536;-83
2022/04/18 08:20:28;;;;;;;;;5.00;5.00;;;;;14.23;45.41;101127.50;5069807;28;45305;-83
2022/04/18 08:22:53;;;;;;;;;6.50;5.50;;;;;14.46;45.30;101151.03;5070286;28;45364;-83
2022/04/18 08:25:19;;;;;;;;;5.50;5.50;;;;;14.36;43.75;101104.06;5069619;28;45661;-83
2022/04/18 08:27:44;;;;;;;;;7.25;7.00;;;;;14.43;42.79;101090.16;5069805;28;45469;-83
2022/04/18 08:30:09;;;;;;;;;5.50;5.50;;;;;14.60;43.13;101111.75;5069675;28;45487;-82
2022/04/18 08:32:39;;;;;;;;;6.50;5.50;;;;;14.95;42.76;101160.22;5069878;28;45395;-82
2022/04/18 08:35:05;;;;;;;;;8.00;7.00;;;;;14.78;43.34;101113.03;5069560;28;45649;-83
2022/04/18 08:37:31;;;;;;;;;6.50;6.50;;;;;14.82;42.27;101110.50;5069508;28;46042;-83
2022/04/18 08:39:56;;;;;;;;;5.25;5.25;;;;;14.82;41.70;101107.84;5069799;28;45660;-81
2022/04/18 08:42:23;;;;;;;;;6.50;6.50;;;;;14.91;41.41;101116.00;5069439;28;45726;-82
2022/04/18 08:44:54;;;;;;;;;7.25;6.25;;;;;14.93;40.95;101109.00;5051408;28;47966;-82
2022/04/18 08:52:50;;;;;;;;;5.25;5.00;;;;;15.29;41.59;101138.91;5069723;28;45442;-83
2022/04/18 08:55:16;;;;;;;;;7.00;6.25;;;;;15.41;40.74;101148.00;5068914;28;47267;-81
2022/04/18 08:57:42;;;;;;;;;8.75;8.00;;;;;15.26;40.23;101097.34;5069556;28;45770;-82
2022/04/18 09:00:09;;;;;;;;;7.25;7.00;;;;;15.40;40.01;101110.88;5067731;28;45576;-83
2022/04/18 09:02:34;;;;;;;;;6.25;5.75;;;;;15.30;39.74;101078.03;5073083;27;45631;-83
2022/04/18 09:05:00;;;;;;;;;8.00;8.00;;;;;15.72;39.76;101151.34;5072455;27;46472;-82
2022/04/18 09:07:25;;;;;;;;;8.50;8.00;;;;;15.59;39.51;101118.34;5072453;28;45527;-83
2022/04/18 09:09:55;;;;;;;;;9.25;8.00;;;;;15.75;40.12;101119.56;5080931;27;45746;-82
2022/04/18 09:12:22;;;;;;;;;7.25;7.25;;;;;15.69;39.85;101098.25;5092779;27;45770;-82
2022/04/18 09:14:48;;;;;;;;;12.00;11.50;;;;;15.67;39.57;101078.81;5093504;27;46386;-82
2022/04/18 09:17:31;;;;;;;;;9.75;9.00;;;;;16.17;39.21;101153.06;5074472;27;45651;-82
2022/04/18 09:20:11;;;;;;;;;9.25;8.75;;;;;16.28;38.75;101143.53;5093117;27;45446;-82
2022/04/18 09:22:47;;;;;;;;;8.25;8.25;;;;;16.15;39.18;101096.44;5093332;27;45641;-83
2022/04/18 09:25:13;;;;;;;;;9.00;9.00;;;;;16.49;38.97;101137.69;5074825;27;47945;-82
2022/04/18 09:27:40;;;;;;;;;10.25;10.00;;;;;16.41;39.55;101112.81;5074802;27;45350;-84
2022/04/18 09:30:08;;;;;;;;;13.00;12.00;;;;;16.44;38.91;101083.66;5093499;27;45320;-83
2022/04/18 09:32:34;;;;;;;;;13.75;13.00;;;;;16.74;38.99;101139.91;5093181;27;45863;-83
2022/04/18 09:35:05;;;;;;;;;12.50;12.50;;;;;16.55;38.84;101086.50;5092822;27;45505;-83
2022/04/18 09:37:31;;;;;;;;;14.75;13.75;;;;;16.40;39.20;101042.03;5092703;27;45624;-83
2022/04/18 09:39:57;;;;;;;;;14.75;13.25;;;;;16.98;39.26;101133.19;5092849;27;45673;-83
2022/04/18 09:42:27;;;;;;;;;14.25;13.25;;;;;16.96;39.15;101114.59;5073490;27;45576;-82
2022/04/18 09:44:53;;;;;;;;;14.50;13.75;;;;;16.90;38.69;101101.25;5092878;27;46606;-84
2022/04/18 09:47:20;;;;;;;;;13.50;12.75;;;;;16.82;38.66;101064.81;5092600;27;45355;-83
2022/04/18 09:49:46;;;;;;;;;15.00;14.75;;;;;16.98;38.46;101083.63;5078830;27;45394;-82
2022/04/18 09:52:17;;;;;;;;;16.25;14.50;;;;;17.20;38.02;101113.16;5072184;28;45344;-83
2022/04/18 09:54:49;;;;;;;;;15.00;14.75;;;;;17.38;38.17;101115.16;5071231;28;48051;-84
2022/04/18 09:57:20;;;;;;;;;15.75;13.50;;;;;17.32;37.99;101081.44;5071748;28;45895;-83
2022/04/18 09:59:48;;;;;;;;;16.25;15.50;;;;;17.32;37.83;101061.94;5054082;28;45611;-83
2022/04/18 10:02:13;;;;;;;;;15.00;13.75;;;;;17.68;37.62;101107.53;5053594;28;45562;-83
2022/04/18 10:04:39;;;;;;;;;14.50;13.75;;;;;17.93;37.29;101124.72;5072166;28;46130;-84
2022/04/18 10:07:06;;;;;;;;;13.50;13.50;;;;;18.05;36.89;101113.31;5072144;28;45598;-84
2022/04/18 10:09:32;;;;;;;;;12.25;12.00;;;;;18.11;36.97;101101.81;5071847;28;45634;-83
2022/04/18 10:11:57;;;;;;;;;16.50;16.00;;;;;18.15;36.45;101085.91;5053320;28;45723;-83
2022/04/18 10:14:23;;;;;;;;;16.50;15.75;;;;;18.14;36.57;101080.59;5071357;28;46366;-84
2022/04/18 10:16:49;;;;;;;;;16.00;15.00;;;;;18.13;36.72;101068.13;5072135;28;45350;-84
2022/04/18 10:19:33;;;;;;;;;15.50;15.50;;;;;18.44;37.01;101107.44;5071534;28;45830;-83
2022/04/18 10:22:19;;;;;;;;;21.00;20.00;;;;;18.48;36.44;101098.63;5071856;28;45418;-83
2022/04/18 10:24:56;;;;;;;;;17.75;16.75;;;;;18.58;36.35;101115.56;5071974;28;46247;-83
2022/04/18 10:27:34;;;;;;;;;18.50;17.50;;;;;18.55;36.12;101091.56;5071889;28;46170;-82
2022/04/18 10:30:01;;;;;;;;;12.25;12.00;;;;;18.41;35.58;101078.13;5072258;28;45502;-82
2022/04/18 10:32:28;;;;;;;;;15.75;15.50;;;;;18.34;35.92;101072.75;5071446;28;45371;-84
2022/04/18 10:35:01;;;;;;;;;16.25;14.75;;;;;18.39;35.83;101085.22;5072244;28;45654;-83
2022/04/18 10:37:28;;;;;;;;;14.00;13.00;;;;;18.43;35.94;101092.38;5053153;28;45814;-83
2022/04/18 10:39:57;;;;;;;;;18.00;16.75;;;;;18.55;35.72;101095.09;5071631;28;45382;-84
2022/04/18 10:42:31;;;;;;;;;17.00;15.50;;;;;18.66;35.40;101094.28;5072057;28;45509;-85
2022/04/18 10:45:01;;;;;;;;;18.00;18.00;;;;;18.76;35.44;101089.06;5071209;28;45490;-83
2022/04/18 10:47:26;;;;;;;;;14.25;14.25;;;;;18.52;35.73;101031.22;5071218;28;45887;-82
2022/04/18 10:50:15;;;;;;;;;15.25;15.00;;;;;18.60;34.68;101030.34;5057239;28;45474;-84
2022/04/18 10:52:40;;;;;;;;;16.50;16.25;;;;;18.58;33.90;101033.03;5051586;28;45443;-83
2022/04/18 10:55:05;;;;;;;;;13.75;13.75;;;;;18.23;35.33;100977.78;5050865;28;46154;-83
2022/04/18 10:57:32;;;;;;;;;16.75;15.50;;;;;18.59;35.44;101024.16;5051225;28;45291;-84
2022/04/18 10:59:58;;;;;;;;;13.75;13.00;;;;;18.66;34.65;101028.63;5050973;28;45842;-82
2022/04/18 11:02:44;;;;;;;;;13.00;12.25;;;;;18.89;34.55;101052.75;5050422;28;45913;-83
2022/04/18 11:05:10;;;;;;;;;11.25;11.00;;;;;18.84;34.55;101038.53;5050689;28;46358;-82
2022/04/18 11:07:40;;;;;;;;;10.00;10.00;;;;;19.06;33.35;101061.75;5032716;28;46090;-83
2022/04/18 11:10:23;;;;;;;;;12.00;12.00;;;;;19.01;33.79;101039.53;5059727;28;45651;-83
2022/04/18 11:12:50;;;;;;;;;11.50;11.50;;;;;18.88;33.25;101024.34;5071325;28;45632;-82
2022/04/18 11:15:17;;;;;;;;;12.25;11.75;;;;;18.72;33.41;100995.88;5070610;28;46528;-83
2022/04/18 11:17:42;;;;;;;;;14.50;13.00;;;;;19.10;33.48;101062.63;5052566;28;45416;-84
2022/04/18 11:20:29;;;;;;;;;13.75;13.00;;;;;18.92;32.98;101027.94;5070805;28;45497;-82
2022/04/18 11:23:19;;;;;;;;;10.25;10.25;;;;;19.17;33.09;101059.13;5070777;28;45648;-84
2022/04/18 11:25:53;;;;;;;;;13.25;11.25;;;;;19.31;32.94;101059.19;5069546;28;45469;-84
2022/04/18 11:28:19;;;;;;;;;11.00;10.50;;;;;19.33;32.10;101038.75;5052294;28;46004;-83
2022/04/18 11:30:44;;;;;;;;;17.25;16.75;;;;;19.27;32.06;101001.44;5071098;28;45635;-83
2022/04/18 11:33:10;;;;;;;;;13.25;13.25;;;;;19.55;32.33;101018.34;5051661;28;45456;-82
2022/04/18 11:35:35;;;;;;;;;11.75;11.50;;;;;19.65;32.38;101012.19;5071016;28;45558;-83
2022/04/18 11:38:08;;;;;;;;;12.00;10.00;;;;;19.66;32.12;100986.44;5069084;28;45970;-82
2022/04/18 11:40:38;;;;;;;;;10.50;10.25;;;;;20.22;31.07;101053.16;5052517;28;45412;-82